createdAt,value
2023-01-09T00:00:15.811Z,72.12
2023-01-09T00:04:19.386Z,72.07
2023-01-09T00:08:22.501Z,72.14
2023-01-09T00:12:27.084Z,72.01
2023-01-09T00:16:30.333Z,72.21
2023-01-09T00:20:33.332Z,71.92
2023-01-09T00:24:37.065Z,72.22
2023-01-09T00:28:42.146Z,72.63
2023-01-09T00:32:45.573Z,72.37
2023-01-09T00:36:48.885Z,71.98
2023-01-09T00:40:52.421Z,72.12
2023-01-09T00:45:00.426Z,72.37
2023-01-09T00:49:05.644Z,71.94
2023-01-09T00:53:14.554Z,72.14
2023-01-09T00:57:17.989Z,72.15
2023-01-09T01:01:23.282Z,72.17
2023-01-09T01:05:43.932Z,72.42
2023-01-09T01:09:50.045Z,72.07
2023-01-09T01:13:53.725Z,71.85
2023-01-09T01:17:59.892Z,71.96
2023-01-09T01:22:03.198Z,71.66
2023-01-09T01:26:07.627Z,71.86
2023-01-09T01:30:14.720Z,71.93
2023-01-09T01:34:19.351Z,71.88
2023-01-09T01:38:22.468Z,71.36
2023-01-09T01:42:25.636Z,71.31
2023-01-09T01:46:29.506Z,71.33
2023-01-09T01:50:39.166Z,71.52
2023-01-09T01:54:43.287Z,71.38
2023-01-09T01:58:51.613Z,71.75
2023-01-09T02:02:54.871Z,71.82
2023-01-09T02:07:02.005Z,71.91
2023-01-09T02:11:06.819Z,71.59
2023-01-09T02:15:13.301Z,71.45
2023-01-09T02:19:37.921Z,72.18
2023-01-09T02:24:26.148Z,72.22
2023-01-09T02:28:55.429Z,71.74
2023-01-09T02:33:10.351Z,71.91
2023-01-09T02:37:22.989Z,71.62
2023-01-09T02:41:36.867Z,71.95
2023-01-09T02:45:40.323Z,72.40
2023-01-09T02:49:49.200Z,71.94
2023-01-09T02:54:04.503Z,71.96
2023-01-09T02:58:13.164Z,72.09
2023-01-09T03:02:35.636Z,71.64
2023-01-09T03:06:48.537Z,71.64
2023-01-09T03:10:57.294Z,71.72
2023-01-09T03:15:03.296Z,71.53
2023-01-09T03:19:09.667Z,71.76
2023-01-09T03:23:14.127Z,70.97
2023-01-09T03:27:17.376Z,71.44
2023-01-09T03:31:20.325Z,71.23
2023-01-09T03:35:23.758Z,71.62
2023-01-09T03:39:28.253Z,71.64
2023-01-09T03:43:31.892Z,71.47
2023-01-09T03:47:34.791Z,71.28
2023-01-09T03:51:38.056Z,72.23
2023-01-09T03:55:45.350Z,71.90
2023-01-09T03:59:48.410Z,71.58
2023-01-09T04:03:51.365Z,71.44
2023-01-09T04:07:54.540Z,71.68
2023-01-09T04:11:59.285Z,71.76
2023-01-09T04:16:02.611Z,71.79
2023-01-09T04:20:06.678Z,71.42
2023-01-09T04:24:10.062Z,71.89
2023-01-09T04:28:14.592Z,71.86
2023-01-09T04:32:17.888Z,71.65
2023-01-09T04:36:20.885Z,72.11
2023-01-09T04:40:24.087Z,71.74
2023-01-09T04:44:28.721Z,71.52
2023-01-09T04:48:31.955Z,71.36
2023-01-09T04:52:34.901Z,71.30
2023-01-09T04:56:38.116Z,71.41
2023-01-09T05:00:42.663Z,71.81
2023-01-09T05:04:45.814Z,71.75
2023-01-09T05:08:48.909Z,71.76
2023-01-09T05:12:52.839Z,71.87
2023-01-09T05:16:58.274Z,71.93
2023-01-09T05:21:01.516Z,72.42
2023-01-09T05:25:04.762Z,72.56
2023-01-09T05:29:07.883Z,72.32
2023-01-09T05:33:12.422Z,72.31
2023-01-09T05:37:15.646Z,72.96
2023-01-09T05:41:18.627Z,72.75
2023-01-09T05:45:22.513Z,72.94
2023-01-09T05:49:27.226Z,72.56
2023-01-09T05:53:30.464Z,72.65
2023-01-09T05:57:33.344Z,72.51
2023-01-09T06:01:36.723Z,72.40
2023-01-09T06:05:41.268Z,72.14
2023-01-09T06:09:45.578Z,72.39
2023-01-09T06:13:48.450Z,71.96
2023-01-09T06:17:51.888Z,71.83
2023-01-09T06:21:56.350Z,71.76
2023-01-09T06:26:00.872Z,71.76
2023-01-09T06:30:04.181Z,72.12
2023-01-09T06:34:07.244Z,72.04
2023-01-09T06:38:12.642Z,71.87
2023-01-09T06:42:15.721Z,71.57
2023-01-09T06:46:19.015Z,71.87
2023-01-09T06:50:22.064Z,72.10
2023-01-09T06:54:28.609Z,72.29
2023-01-09T06:58:31.915Z,71.83
2023-01-09T07:02:34.773Z,72.01
2023-01-09T07:06:38.355Z,72.07
2023-01-09T07:10:42.967Z,72.34
2023-01-09T07:14:46.092Z,72.63
2023-01-09T07:18:49.221Z,72.95
2023-01-09T07:22:52.268Z,73.24
2023-01-09T07:26:56.819Z,72.68
2023-01-09T07:31:02.904Z,72.99
2023-01-09T07:35:06.644Z,73.32
2023-01-09T07:39:09.678Z,73.47
2023-01-09T07:43:14.213Z,72.78
2023-01-09T07:47:17.165Z,73.64
2023-01-09T07:51:20.278Z,73.53
2023-01-09T07:55:23.330Z,73.76
2023-01-09T07:59:29.128Z,73.95
2023-01-09T08:03:33.753Z,74.31
2023-01-09T08:07:37.060Z,74.29
2023-01-09T08:11:39.996Z,75.37
2023-01-09T08:15:45.851Z,76.03
2023-01-09T08:19:48.917Z,77.35
2023-01-09T08:23:52.064Z,78.21
2023-01-09T08:27:55.011Z,78.16
2023-01-09T08:31:59.813Z,77.86
2023-01-09T08:36:03.072Z,77.36
2023-01-09T08:40:07.893Z,76.48
2023-01-09T08:44:28.455Z,75.86
2023-01-09T08:48:32.917Z,74.97
2023-01-09T08:52:36.048Z,74.22
2023-01-09T08:56:39.499Z,73.90
2023-01-09T09:00:42.813Z,73.64
2023-01-09T09:04:48.127Z,73.24
2023-01-09T09:08:51.231Z,73.13
2023-01-09T09:12:56.220Z,72.71
2023-01-09T09:16:59.721Z,72.76
2023-01-09T09:21:04.128Z,73.19
2023-01-09T09:25:08.689Z,72.73
2023-01-09T09:29:11.889Z,72.94
2023-01-09T09:33:15.023Z,73.02
2023-01-09T09:37:23.614Z,72.91
2023-01-09T09:42:03.317Z,73.12
2023-01-09T09:46:16.537Z,72.99
2023-01-09T09:50:43.348Z,72.66
2023-01-09T10:01:02.608Z,71.77
2023-01-09T10:06:12.488Z,71.88
2023-01-09T10:10:47.760Z,71.85
2023-01-09T10:14:52.054Z,71.51
2023-01-09T10:19:18.932Z,71.56
2023-01-09T10:23:54.568Z,71.95
2023-01-09T10:28:28.291Z,71.32
2023-01-09T10:32:53.048Z,71.78
2023-01-09T10:37:03.132Z,71.48
2023-01-09T10:41:11.974Z,71.54
2023-01-09T10:45:22.515Z,71.16
2023-01-09T10:49:26.172Z,71.62
2023-01-09T10:53:34.460Z,71.69
2023-01-09T10:57:43.461Z,71.65
2023-01-09T11:01:48.284Z,70.29
2023-01-09T11:05:53.995Z,70.25
2023-01-09T11:09:59.274Z,70.75
2023-01-09T11:14:08.646Z,71.06
2023-01-09T11:18:26.061Z,70.42
2023-01-09T11:22:29.792Z,70.32
2023-01-09T11:26:35.154Z,70.49
2023-01-09T11:30:39.211Z,70.76
2023-01-09T11:34:47.557Z,70.97
2023-01-09T11:38:54.037Z,71.22
2023-01-09T11:43:07.677Z,70.63
2023-01-09T11:47:28.019Z,71.10
2023-01-09T11:51:35.259Z,70.62
2023-01-09T11:55:42.868Z,71.05
2023-01-09T11:59:46.279Z,69.46
2023-01-09T12:04:08.703Z,69.80
2023-01-09T12:12:52.996Z,68.98
2023-01-09T12:17:20.120Z,69.25
2023-01-09T12:21:37.544Z,68.21
2023-01-09T12:25:51.811Z,68.31
2023-01-09T12:30:12.281Z,67.27
2023-01-09T12:34:32.863Z,68.50
2023-01-09T12:38:48.072Z,68.23
2023-01-09T12:42:59.830Z,67.46
2023-01-09T12:47:20.665Z,67.33
2023-01-09T12:51:29.525Z,66.98
2023-01-09T12:55:40.092Z,65.67
2023-01-09T12:59:48.806Z,64.90
2023-01-09T13:04:03.260Z,63.27
2023-01-09T13:08:11.597Z,63.66
2023-01-09T13:12:18.635Z,63.90
2023-01-09T13:16:24.893Z,62.27
2023-01-09T13:20:37.800Z,62.01
2023-01-09T13:24:54.821Z,64.06
2023-01-09T13:29:03.445Z,61.59
2023-01-09T13:33:18.389Z,62.04
2023-01-09T13:37:26.156Z,62.01
2023-01-09T13:41:48.965Z,61.54
2023-01-09T13:45:53.050Z,61.75
2023-01-09T13:50:22.969Z,61.65
2023-01-09T13:54:59.293Z,61.43
2023-01-09T13:59:04.441Z,60.90
2023-01-09T14:03:23.790Z,61.52
2023-01-09T14:07:28.547Z,60.78
2023-01-09T14:11:32.224Z,60.48
2023-01-09T14:15:40.072Z,61.17
2023-01-09T14:19:46.989Z,62.22
2023-01-09T14:24:02.169Z,62.60
2023-01-09T14:28:21.967Z,62.79
2023-01-09T14:32:47.365Z,62.53
2023-01-09T14:36:50.784Z,62.48
2023-01-09T14:40:58.711Z,61.96
2023-01-09T14:45:08.369Z,62.22
2023-01-09T14:49:25.566Z,61.81
2023-01-09T14:53:32.041Z,62.98
2023-01-09T14:57:36.414Z,62.20
2023-01-09T15:01:43.113Z,62.03
2023-01-09T15:05:49.924Z,62.97
2023-01-09T15:09:53.106Z,62.53
2023-01-09T15:14:00.633Z,62.15
2023-01-09T15:18:07.136Z,62.96
2023-01-09T15:22:24.973Z,63.22
2023-01-09T15:26:30.591Z,62.77
2023-01-09T15:30:36.287Z,63.10
2023-01-09T15:34:39.564Z,62.09
2023-01-09T15:38:44.998Z,62.50
2023-01-09T15:42:58.442Z,62.61
2023-01-09T15:47:02.897Z,62.59
2023-01-09T15:51:10.603Z,62.93
2023-01-09T15:55:35.258Z,62.62
2023-01-09T15:59:39.046Z,61.96
2023-01-09T16:03:42.127Z,61.62
2023-01-09T16:07:47.369Z,62.35
2023-01-09T16:11:54.473Z,62.32
2023-01-09T16:15:59.004Z,63.07
2023-01-09T16:20:16.056Z,62.86
2023-01-09T16:24:27.984Z,62.05
2023-01-09T16:28:33.032Z,62.92
2023-01-09T16:32:46.789Z,61.54
2023-01-09T16:36:49.984Z,62.52
2023-01-09T16:41:18.371Z,62.63
2023-01-09T16:45:23.251Z,61.16
2023-01-09T16:49:29.325Z,61.58
2023-01-09T16:53:32.460Z,61.55
2023-01-09T16:57:36.862Z,61.37
2023-01-09T17:01:41.919Z,61.96
2023-01-09T17:05:45.679Z,61.24
2023-01-09T17:09:49.225Z,61.89
2023-01-09T17:13:52.702Z,62.07
2023-01-09T17:18:01.307Z,61.30
2023-01-09T17:22:04.352Z,61.70
2023-01-09T17:26:25.120Z,61.57
2023-01-09T17:30:28.721Z,60.88
2023-01-09T17:34:34.455Z,61.57
2023-01-09T17:38:39.858Z,60.45
2023-01-09T17:42:42.787Z,60.87
2023-01-09T17:46:46.323Z,60.92
2023-01-09T17:50:51.480Z,60.85
2023-01-09T17:54:57.871Z,61.33
2023-01-09T17:59:13.781Z,61.42
2023-01-09T18:03:21.187Z,61.32
2023-01-09T18:07:29.157Z,61.21
2023-01-09T18:11:32.854Z,61.04
2023-01-09T18:15:36.979Z,62.08
2023-01-09T18:19:40.656Z,61.47
2023-01-09T18:23:50.612Z,62.03
2023-01-09T18:27:57.025Z,61.73
2023-01-09T18:32:03.812Z,62.29
2023-01-09T18:36:08.521Z,62.25
2023-01-09T18:40:19.761Z,61.81
2023-01-09T18:44:25.019Z,61.99
2023-01-09T18:48:33.926Z,61.87
2023-01-09T18:52:37.131Z,61.90
2023-01-09T18:56:42.381Z,62.09
2023-01-09T19:00:46.246Z,61.33
2023-01-09T19:04:49.591Z,60.64
2023-01-09T19:08:53.330Z,61.58
2023-01-09T19:12:58.962Z,61.22
2023-01-09T19:17:02.100Z,60.83
2023-01-09T19:21:13.306Z,61.57
2023-01-09T19:25:17.579Z,60.96
2023-01-09T19:29:22.434Z,62.14
2023-01-09T19:33:28.666Z,62.35
2023-01-09T19:37:32.031Z,62.29
2023-01-09T19:41:35.180Z,62.40
2023-01-09T19:45:41.590Z,63.47
2023-01-09T19:49:44.865Z,63.60
2023-01-09T19:53:53.763Z,63.83
2023-01-09T19:57:57.111Z,64.23
2023-01-09T20:02:03.347Z,64.40
2023-01-09T20:06:08.005Z,64.36
2023-01-09T20:10:14.967Z,65.04
2023-01-09T20:14:20.160Z,64.83
2023-01-09T20:18:24.814Z,64.84
2023-01-09T20:22:27.901Z,65.19
2023-01-09T20:26:31.455Z,63.96
2023-01-09T20:30:36.611Z,63.71
2023-01-09T20:34:42.918Z,64.03
2023-01-09T20:38:48.314Z,64.35
2023-01-09T20:42:51.218Z,63.77
2023-01-09T20:46:55.861Z,65.18
2023-01-09T20:51:05.950Z,65.11
2023-01-09T20:55:10.879Z,63.66
2023-01-09T20:59:17.249Z,64.10
2023-01-09T21:03:20.314Z,63.99
2023-01-09T21:07:26.415Z,64.38
2023-01-09T21:11:29.735Z,64.77
2023-01-09T21:15:33.388Z,64.46
2023-01-09T21:19:36.315Z,65.13
2023-01-09T21:23:42.059Z,65.20
2023-01-09T21:27:46.215Z,65.05
2023-01-09T21:31:49.614Z,65.17
2023-01-09T21:35:56.276Z,66.23
2023-01-09T21:40:00.872Z,65.95
2023-01-09T21:44:21.890Z,66.03
2023-01-09T21:48:25.804Z,66.56
2023-01-09T21:52:29.318Z,66.88
2023-01-09T21:56:33.813Z,66.71
2023-01-09T22:00:37.253Z,67.30
2023-01-09T22:04:43.223Z,67.18
2023-01-09T22:08:46.586Z,67.75
2023-01-09T22:13:10.365Z,67.79
2023-01-09T22:17:15.634Z,68.21
2023-01-09T22:21:19.172Z,68.18
2023-01-09T22:25:22.886Z,68.64
2023-01-09T22:29:27.340Z,68.78
2023-01-09T22:33:30.420Z,69.07
2023-01-09T22:37:33.661Z,69.48
2023-01-09T22:41:36.978Z,69.67
2023-01-09T22:45:41.348Z,69.15
2023-01-09T22:49:52.868Z,70.04
2023-01-09T22:53:56.525Z,69.30
2023-01-09T22:57:59.913Z,70.12
2023-01-09T23:02:04.436Z,70.01
2023-01-09T23:06:09.966Z,70.49
2023-01-09T23:10:13.243Z,70.14
2023-01-09T23:14:16.413Z,70.08
2023-01-09T23:18:20.990Z,70.73
2023-01-09T23:22:26.189Z,70.79
2023-01-09T23:26:29.258Z,70.84
2023-01-09T23:30:32.468Z,71.29
2023-01-09T23:34:37.026Z,71.01
2023-01-09T23:38:41.200Z,71.47
2023-01-09T23:43:01.670Z,71.27
2023-01-09T23:47:04.960Z,71.59
2023-01-09T23:51:09.373Z,71.50
2023-01-09T23:55:12.367Z,71.53
2023-01-09T23:59:17.998Z,71.77
